Time;durP1;ratioP1;P1;durP2;ratioP2;P2;SDS_P1;SDS_P2;PMS_P1;PMS_P2;Temp;Humidity;BMP_temperature;BMP_pressure;BME280_temperature;BME280_humidity;BME280_pressure;Samples;Min_cycle;Max_cycle;Signal;HPM_P1;HPM_P2
2022/08/11 00:00:32;;;;;;;;;;;23.70;71.10;;;;;;4995892;28;19910;-75
2022/08/11 00:03:02;;;;;;;;;;;23.70;71.20;;;;;;4997332;28;19912;-80
2022/08/11 00:05:28;;;;;;;;;;;23.60;71.50;;;;;;5014778;28;20430;-80
2022/08/11 00:07:54;;;;;;;;;;;23.60;71.60;;;;;;5015359;28;19910;-81
2022/08/11 00:10:22;;;;;;;;;;;23.50;71.70;;;;;;5014771;28;19906;-74
2022/08/11 00:13:08;;;;;;;;;;;23.40;71.90;;;;;;5015043;28;19906;-74
2022/08/11 00:15:41;;;;;;;;;;;23.30;72.20;;;;;;5015305;28;19919;-78
2022/08/11 00:18:08;;;;;;;;;;;23.30;72.30;;;;;;5015016;28;20341;-80
2022/08/11 00:20:35;;;;;;;;;;;23.20;72.50;;;;;;5015144;28;19906;-80
2022/08/11 00:23:01;;;;;;;;;;;23.20;72.50;;;;;;5015046;28;19909;-81
2022/08/11 00:25:27;;;;;;;;;;;23.10;72.60;;;;;;5015352;28;19941;-74
2022/08/11 00:27:53;;;;;;;;;;;23.10;72.90;;;;;;5015029;28;19912;-80
2022/08/11 00:30:18;;;;;;;;;;;23.10;72.90;;;;;;5015263;28;19955;-80
2022/08/11 00:32:52;;;;;;;;;;;23.00;72.90;;;;;;5014777;28;20299;-80
2022/08/11 00:35:22;;;;;;;;;;;23.00;73.00;;;;;;5014782;28;19905;-74
2022/08/11 00:37:49;;;;;;;;;;;22.90;73.20;;;;;;5014980;28;19905;-74
2022/08/11 00:40:19;;;;;;;;;;;22.90;73.50;;;;;;5015036;28;20347;-80
2022/08/11 00:42:53;;;;;;;;;;;22.80;73.50;;;;;;5014788;28;19955;-81
2022/08/11 00:45:33;;;;;;;;;;;22.70;73.80;;;;;;5014531;28;19966;-80
2022/08/11 00:48:02;;;;;;;;;;;22.70;73.80;;;;;;5014940;28;19988;-81
2022/08/11 00:50:50;;;;;;;;;;;22.70;73.80;;;;;;5014641;28;19905;-74
2022/08/11 00:53:34;;;;;;;;;;;22.60;74.10;;;;;;5014404;28;19953;-80
2022/08/11 00:56:18;;;;;;;;;;;22.50;74.20;;;;;;5013328;28;19909;-80
2022/08/11 00:59:03;;;;;;;;;;;22.50;74.20;;;;;;5014390;28;19909;-80
2022/08/11 01:01:37;;;;;;;;;;;22.50;74.50;;;;;;5014525;28;19953;-80
2022/08/11 01:04:05;;;;;;;;;;;22.40;74.40;;;;;;5014538;28;19906;-74
2022/08/11 01:06:49;;;;;;;;;;;22.40;74.60;;;;;;5014633;28;19942;-79
2022/08/11 01:09:30;;;;;;;;;;;22.30;74.70;;;;;;5013774;28;20352;-74
2022/08/11 01:12:08;;;;;;;;;;;22.20;74.80;;;;;;5014283;28;19950;-80
2022/08/11 01:14:46;;;;;;;;;;;22.20;74.90;;;;;;5013534;28;19905;-75
2022/08/11 01:17:29;;;;;;;;;;;22.20;75.10;;;;;;5014106;28;19963;-74
2022/08/11 01:20:06;;;;;;;;;;;22.10;75.10;;;;;;5014067;28;19905;-80
2022/08/11 01:22:32;;;;;;;;;;;22.10;75.10;;;;;;4994542;28;19905;-80
2022/08/11 01:25:16;;;;;;;;;;;22.00;75.20;;;;;;4994426;28;19960;-74
2022/08/11 01:28:01;;;;;;;;;;;22.00;75.40;;;;;;4994421;28;19913;-74
2022/08/11 01:30:39;;;;;;;;;;;22.00;75.50;;;;;;4994293;28;20368;-80
2022/08/11 01:33:20;;;;;;;;;;;21.90;75.60;;;;;;4994639;28;19960;-80
2022/08/11 01:35:45;;;;;;;;;;;21.90;75.60;;;;;;4994464;28;19960;-80
2022/08/11 01:38:11;;;;;;;;;;;21.80;75.80;;;;;;4997320;28;19940;-80
2022/08/11 01:40:39;;;;;;;;;;;21.80;75.90;;;;;;5014061;28;19913;-75
2022/08/11 01:46:26;;;;;;;;;;;21.80;76.10;;;;;;5013668;28;20455;-79
2022/08/11 01:49:10;;;;;;;;;;;21.80;75.90;;;;;;5013542;28;20323;-79
2022/08/11 01:51:41;;;;;;;;;;;21.90;75.70;;;;;;5013577;28;20063;-79
2022/08/11 01:54:19;;;;;;;;;;;21.90;75.60;;;;;;5013625;28;19912;-74
2022/08/11 01:57:03;;;;;;;;;;;21.90;75.60;;;;;;5013239;28;19920;-79
2022/08/11 01:59:33;;;;;;;;;;;21.90;75.50;;;;;;5013682;28;20000;-79
2022/08/11 02:02:16;;;;;;;;;;;21.90;75.50;;;;;;5013861;28;20328;-73
2022/08/11 02:04:44;;;;;;;;;;;21.90;75.40;;;;;;5013347;28;19948;-73
2022/08/11 02:07:20;;;;;;;;;;;21.90;75.50;;;;;;5013796;28;19992;-74
2022/08/11 02:11:29;;;;;;;;;;;21.80;75.70;;;;;;5013175;28;20292;-73
2022/08/11 02:12:59;;;;;;;;;;;21.70;75.70;;;;;;5013051;28;19951;-79
2022/08/11 02:15:35;;;;;;;;;;;21.70;76.00;;;;;;5013547;28;19909;-79
2022/08/11 02:18:07;;;;;;;;;;;21.60;76.00;;;;;;5013335;28;19912;-79
2022/08/11 02:23:42;;;;;;;;;;;21.60;76.30;;;;;;5013076;28;19912;-74
2022/08/11 02:26:09;;;;;;;;;;;21.60;76.40;;;;;;5013528;28;19905;-78
2022/08/11 02:28:54;;;;;;;;;;;21.50;76.30;;;;;;5013334;28;20373;-79
2022/08/11 02:34:39;;;;;;;;;;;21.40;76.50;;;;;;5016978;28;19912;-73
2022/08/11 02:37:23;;;;;;;;;;;21.40;76.60;;;;;;5017421;28;19913;-73
2022/08/11 02:39:58;;;;;;;;;;;21.30;76.50;;;;;;5017691;28;19905;-79
2022/08/11 02:42:29;;;;;;;;;;;21.30;77.20;;;;;;5017006;28;20387;-79
2022/08/11 02:44:54;;;;;;;;;;;21.20;76.80;;;;;;5012270;28;19916;-79
2022/08/11 02:47:26;;;;;;;;;;;21.30;77.00;;;;;;4997476;28;19906;-73
2022/08/11 02:50:09;;;;;;;;;;;21.20;76.50;;;;;;4997461;28;20388;-73
2022/08/11 02:52:39;;;;;;;;;;;21.30;76.50;;;;;;4997231;28;19921;-79
2022/08/11 02:55:12;;;;;;;;;;;21.30;76.70;;;;;;4997237;28;19906;-73
2022/08/11 02:57:42;;;;;;;;;;;21.30;76.60;;;;;;4997002;28;20009;-76
2022/08/11 03:00:10;;;;;;;;;;;21.30;76.50;;;;;;4997334;28;20324;-73
2022/08/11 03:02:44;;;;;;;;;;;21.30;76.70;;;;;;4997219;28;19905;-79
2022/08/11 03:05:15;;;;;;;;;;;21.20;76.90;;;;;;5016069;28;19905;-79
2022/08/11 03:07:59;;;;;;;;;;;21.20;76.80;;;;;;5016846;28;19955;-74
2022/08/11 03:10:33;;;;;;;;;;;21.30;76.90;;;;;;5015835;28;19920;-79
2022/08/11 03:19:02;;;;;;;;;;;21.30;76.50;;;;;;5015806;28;19956;-79
2022/08/11 03:21:31;;;;;;;;;;;21.30;76.70;;;;;;5016339;28;19953;-79
2022/08/11 03:24:06;;;;;;;;;;;21.30;76.70;;;;;;5016514;28;20027;-79
2022/08/11 03:26:46;;;;;;;;;;;21.20;76.80;;;;;;5016360;28;19991;-79
2022/08/11 03:29:30;;;;;;;;;;;21.20;76.80;;;;;;5014835;28;19905;-79
2022/08/11 03:32:00;;;;;;;;;;;21.10;76.80;;;;;;5015795;28;19906;-79
2022/08/11 03:34:28;;;;;;;;;;;21.10;76.60;;;;;;5015869;28;19909;-79
2022/08/11 03:36:53;;;;;;;;;;;21.10;76.80;;;;;;5016320;28;19917;-73
2022/08/11 03:39:31;;;;;;;;;;;21.00;76.90;;;;;;5016299;28;19910;-79
2022/08/11 03:42:02;;;;;;;;;;;21.00;76.90;;;;;;5014593;28;19936;-73
2022/08/11 03:44:36;;;;;;;;;;;21.00;77.00;;;;;;5015886;28;19905;-79
2022/08/11 03:47:20;;;;;;;;;;;21.00;77.00;;;;;;5016185;28;19928;-73
2022/08/11 03:49:52;;;;;;;;;;;21.00;77.20;;;;;;5015835;28;19916;-79
2022/08/11 03:52:21;;;;;;;;;;;20.90;77.20;;;;;;5015732;28;19926;-79
2022/08/11 03:54:58;;;;;;;;;;;20.90;77.10;;;;;;5015705;28;20379;-79
2022/08/11 03:57:39;;;;;;;;;;;20.90;77.30;;;;;;5015465;28;19909;-73
2022/08/11 04:00:06;;;;;;;;;;;20.80;77.30;;;;;;5015810;28;20011;-73
2022/08/11 04:02:45;;;;;;;;;;;20.90;77.30;;;;;;5015721;28;19950;-79
2022/08/11 04:05:11;;;;;;;;;;;20.80;77.40;;;;;;5015129;28;19912;-73
2022/08/11 04:07:39;;;;;;;;;;;20.80;77.50;;;;;;5015435;28;19905;-74
2022/08/11 04:10:23;;;;;;;;;;;20.70;77.40;;;;;;5015373;28;19910;-79
2022/08/11 04:13:08;;;;;;;;;;;20.70;77.70;;;;;;5014301;28;20289;-79
2022/08/11 04:16:01;;;;;;;;;;;20.70;77.60;;;;;;5014404;28;19912;-79
2022/08/11 04:18:46;;;;;;;;;;;20.60;77.70;;;;;;5014803;28;19913;-73
2022/08/11 04:21:30;;;;;;;;;;;20.60;77.80;;;;;;5014988;28;19952;-73
2022/08/11 04:24:05;;;;;;;;;;;20.60;78.10;;;;;;5014952;28;19905;-79
2022/08/11 04:26:36;;;;;;;;;;;20.50;77.90;;;;;;5015188;28;19912;-73
2022/08/11 04:29:03;;;;;;;;;;;20.50;78.10;;;;;;5014958;28;19979;-79
2022/08/11 04:31:28;;;;;;;;;;;20.50;78.30;;;;;;5015005;28;20356;-74
2022/08/11 04:34:07;;;;;;;;;;;20.50;78.10;;;;;;5015086;28;19955;-79
2022/08/11 04:39:29;;;;;;;;;;;20.40;78.30;;;;;;5015304;28;20411;-79
2022/08/11 04:45:12;;;;;;;;;;;20.30;78.40;;;;;;5014702;28;19912;-78
2022/08/11 05:02:36;;;;;;;;;;;20.20;79.10;;;;;;5014463;28;19912;-78
2022/08/11 05:07:58;;;;;;;;;;;20.10;79.20;;;;;;5014222;28;20395;-78
2022/08/11 05:10:35;;;;;;;;;;;20.10;79.30;;;;;;5014300;28;20387;-73
2022/08/11 05:35:46;;;;;;;;;;;20.10;79.50;;;;;;5013579;28;19928;-72
2022/08/11 05:57:32;;;;;;;;;;;20.50;79.20;;;;;;5016560;28;19959;-78
2022/08/11 05:59:59;;;;;;;;;;;20.50;79.20;;;;;;5016264;28;19909;-78
2022/08/11 06:02:25;;;;;;;;;;;20.60;79.10;;;;;;5026194;28;19909;-73
2022/08/11 06:04:56;;;;;;;;;;;20.60;79.00;;;;;;5010491;28;19957;-77
2022/08/11 06:07:25;;;;;;;;;;;20.60;79.00;;;;;;5026741;28;20015;-78
2022/08/11 06:09:51;;;;;;;;;;;20.70;78.90;;;;;;5015325;28;19909;-72
2022/08/11 06:12:19;;;;;;;;;;;20.70;78.90;;;;;;5026076;28;19920;-78
2022/08/11 06:14:45;;;;;;;;;;;20.80;78.90;;;;;;5021004;28;19916;-73
2022/08/11 06:17:10;;;;;;;;;;;20.90;78.70;;;;;;5013838;28;19906;-73
2022/08/11 06:19:40;;;;;;;;;;;20.90;78.30;;;;;;5028640;28;20360;-78
2022/08/11 06:22:07;;;;;;;;;;;21.00;78.30;;;;;;5016534;28;19906;-78
2022/08/11 06:24:33;;;;;;;;;;;21.10;78.20;;;;;;5024934;28;20394;-78
2022/08/11 06:26:59;;;;;;;;;;;21.20;77.90;;;;;;5011091;28;19919;-73
2022/08/11 06:29:25;;;;;;;;;;;21.40;77.80;;;;;;5023288;28;19917;-78
2022/08/11 06:31:52;;;;;;;;;;;21.50;77.40;;;;;;5028002;28;19909;-78
2022/08/11 06:34:28;;;;;;;;;;;21.50;77.10;;;;;;5002651;28;19916;-79
2022/08/11 06:36:56;;;;;;;;;;;21.70;77.20;;;;;;5000603;28;19909;-73
2022/08/11 06:39:22;;;;;;;;;;;21.90;76.70;;;;;;5004540;28;20396;-73
2022/08/11 06:42:02;;;;;;;;;;;22.00;76.50;;;;;;5010283;28;19917;-73
2022/08/11 06:44:31;;;;;;;;;;;22.10;76.30;;;;;;5009984;28;19914;-73
2022/08/11 06:47:03;;;;;;;;;;;22.30;76.00;;;;;;5011902;28;19914;-73
2022/08/11 06:52:17;;;;;;;;;;;22.40;75.50;;;;;;5011719;28;19933;-78
2022/08/11 06:54:48;;;;;;;;;;;22.60;75.20;;;;;;5020177;28;20257;-73
2022/08/11 07:02:53;;;;;;;;;;;23.10;74.30;;;;;;5021134;28;19963;-79
2022/08/11 07:05:24;;;;;;;;;;;23.20;73.60;;;;;;5009467;28;19928;-77
2022/08/11 07:16:37;;;;;;;;;;;23.70;72.80;;;;;;5022139;28;19971;-72
2022/08/11 07:30:41;;;;;;;;;;;24.50;71.00;;;;;;4969973;28;19965;-80
2022/08/11 07:33:07;;;;;;;;;;;24.60;71.00;;;;;;4972909;28;19907;-75
2022/08/11 07:35:35;;;;;;;;;;;24.70;70.90;;;;;;4972321;28;20452;-75
2022/08/11 07:38:05;;;;;;;;;;;24.80;71.00;;;;;;4972576;28;19910;-80
2022/08/11 07:40:31;;;;;;;;;;;25.00;70.40;;;;;;4971080;28;19965;-81
2022/08/11 07:42:58;;;;;;;;;;;25.20;70.20;;;;;;4972526;28;20097;-75
2022/08/11 07:53:37;;;;;;;;;;;26.00;69.50;;;;;;4971466;28;19995;-84
2022/08/11 07:56:05;;;;;;;;;;;26.30;68.80;;;;;;4972317;28;19988;-83
2022/08/11 08:17:56;;;;;;;;;;;37.10;57.30;;;;;;5014693;28;19913;-80
2022/08/11 08:20:29;;;;;;;;;;;37.70;56.80;;;;;;5026082;28;19988;-81
2022/08/11 08:22:56;;;;;;;;;;;37.60;56.40;;;;;;5013933;28;19913;-82
2022/08/11 08:25:23;;;;;;;;;;;38.00;56.30;;;;;;5015316;28;19910;-74
2022/08/11 08:27:49;;;;;;;;;;;38.40;56.10;;;;;;5013729;28;19913;-74
2022/08/11 08:33:00;;;;;;;;;;;38.80;55.80;;;;;;5021272;28;19915;-81
2022/08/11 08:35:26;;;;;;;;;;;39.40;55.30;;;;;;5027585;28;19909;-82
2022/08/11 08:37:52;;;;;;;;;;;39.90;55.20;;;;;;5014054;28;20253;-80
2022/08/11 08:40:18;;;;;;;;;;;39.80;55.00;;;;;;5010268;28;19924;-73
2022/08/11 08:42:46;;;;;;;;;;;40.30;54.90;;;;;;5019411;28;19969;-74
2022/08/11 08:45:14;;;;;;;;;;;40.30;54.60;;;;;;5003743;28;19914;-82
2022/08/11 08:47:41;;;;;;;;;;;40.70;54.60;;;;;;5005511;28;20320;-74
2022/08/11 08:50:09;;;;;;;;;;;41.00;54.20;;;;;;5028128;28;19963;-74
2022/08/11 08:52:39;;;;;;;;;;;41.30;54.30;;;;;;5013304;28;20008;-74
2022/08/11 08:55:06;;;;;;;;;;;41.30;54.20;;;;;;5006221;28;19937;-81
2022/08/11 08:57:35;;;;;;;;;;;41.60;53.80;;;;;;5015907;28;20361;-81
2022/08/11 09:00:01;;;;;;;;;;;41.80;53.40;;;;;;4999787;28;20356;-81
2022/08/11 09:02:27;;;;;;;;;;;42.20;53.80;;;;;;5024921;28;20332;-75
2022/08/11 09:04:53;;;;;;;;;;;42.20;53.50;;;;;;5016288;28;19951;-81
2022/08/11 09:07:21;;;;;;;;;;;42.10;53.60;;;;;;5006533;28;19918;-74
2022/08/11 09:09:48;;;;;;;;;;;42.20;53.70;;;;;;5008280;28;19924;-80
2022/08/11 09:12:16;;;;;;;;;;;42.30;53.50;;;;;;5016168;28;19912;-77
2022/08/11 09:14:59;;;;;;;;;;;42.10;53.60;;;;;;5022681;28;19906;-78
2022/08/11 09:17:26;;;;;;;;;;;42.40;53.30;;;;;;5004570;28;19913;-73
2022/08/11 09:19:59;;;;;;;;;;;42.10;52.90;;;;;;5026925;28;19932;-74
2022/08/11 09:28:03;;;;;;;;;;;42.50;53.10;;;;;;5011721;28;19937;-81
2022/08/11 09:30:29;;;;;;;;;;;42.50;52.90;;;;;;5013656;28;19906;-74
2022/08/11 09:32:59;;;;;;;;;;;42.40;53.10;;;;;;5011271;28;20273;-74
2022/08/11 09:35:26;;;;;;;;;;;42.40;53.20;;;;;;5026463;28;19952;-79
2022/08/11 09:40:47;;;;;;;;;;;43.00;52.70;;;;;;4995982;28;19914;-78
2022/08/11 09:45:59;;;;;;;;;;;42.90;52.20;;;;;;5014972;28;19919;-78
2022/08/11 09:48:27;;;;;;;;;;;43.20;52.70;;;;;;5021040;28;19995;-79
2022/08/11 09:50:58;;;;;;;;;;;43.30;53.00;;;;;;5019986;28;19905;-77
2022/08/11 09:53:25;;;;;;;;;;;43.10;52.60;;;;;;5005283;28;19925;-78
2022/08/11 09:55:51;;;;;;;;;;;43.50;52.20;;;;;;5008055;28;19999;-74
2022/08/11 09:58:17;;;;;;;;;;;42.50;52.20;;;;;;5025241;28;20354;-78
2022/08/11 10:00:47;;;;;;;;;;;43.00;52.20;;;;;;5008744;28;19910;-76
2022/08/11 10:03:23;;;;;;;;;;;43.00;52.20;;;;;;5021347;28;20000;-78
2022/08/11 10:08:40;;;;;;;;;;;43.60;51.90;;;;;;5012158;28;19916;-78
2022/08/11 10:11:08;;;;;;;;;;;43.70;52.20;;;;;;5009672;28;19905;-74
2022/08/11 10:15:32;;;;;;;;;;;43.60;51.70;;;;;;5027069;28;19908;-74
2022/08/11 10:16:26;;;;;;;;;;;43.40;51.60;;;;;;5003825;28;19951;-77
2022/08/11 10:18:53;;;;;;;;;;;43.80;51.30;;;;;;5020519;28;19932;-78
2022/08/11 10:21:27;;;;;;;;;;;43.80;51.20;;;;;;5021549;28;20438;-75
2022/08/11 10:26:59;;;;;;;;;;;43.30;51.00;;;;;;5003180;28;20411;-76
2022/08/11 10:35:01;;;;;;;;;;;43.90;50.60;;;;;;5019510;28;19937;-75
2022/08/11 10:37:33;;;;;;;;;;;44.00;50.60;;;;;;5026407;28;19909;-75
2022/08/11 10:39:59;;;;;;;;;;;44.10;50.30;;;;;;5009939;28;19921;-80
2022/08/11 10:47:33;;;;;;;;;;;43.40;50.20;;;;;;5020892;28;20403;-75
2022/08/11 10:47:55;;;;;;;;;;;43.30;50.40;;;;;;5005591;28;20053;-75
2022/08/11 10:58:55;;;;;;;;;;;44.10;50.40;;;;;;4973666;28;20048;-80
2022/08/11 11:01:25;;;;;;;;;;;44.00;50.50;;;;;;4997733;28;19905;-75
2022/08/11 11:03:53;;;;;;;;;;;43.80;50.10;;;;;;5027969;28;19905;-79
2022/08/11 11:06:43;;;;;;;;;;;43.90;50.50;;;;;;5014413;28;19917;-79
2022/08/11 11:09:17;;;;;;;;;;;43.90;49.90;;;;;;5000359;28;19913;-80
2022/08/11 11:20:05;;;;;;;;;;;43.90;50.40;;;;;;5011438;28;20306;-82
2022/08/11 11:22:39;;;;;;;;;;;43.60;50.40;;;;;;5021766;28;19999;-80
2022/08/11 11:25:05;;;;;;;;;;;43.30;50.20;;;;;;5021377;28;19952;-75
2022/08/11 11:27:47;;;;;;;;;;;42.80;50.10;;;;;;5028059;28;19959;-75
2022/08/11 11:30:14;;;;;;;;;;;42.60;50.10;;;;;;5006878;28;19909;-80
2022/08/11 11:32:58;;;;;;;;;;;42.30;50.40;;;;;;5004264;28;19996;-81
2022/08/11 11:35:30;;;;;;;;;;;42.00;50.30;;;;;;5007348;28;19910;-80
2022/08/11 11:37:56;;;;;;;;;;;41.20;50.70;;;;;;5026852;28;20512;-80
2022/08/11 11:40:22;;;;;;;;;;;40.70;50.60;;;;;;5012004;28;20315;-76
2022/08/11 11:42:49;;;;;;;;;;;40.40;50.70;;;;;;5004843;28;19964;-75
2022/08/11 11:45:15;;;;;;;;;;;40.60;51.20;;;;;;5017160;28;19944;-79
2022/08/11 11:47:43;;;;;;;;;;;40.60;50.60;;;;;;5029933;28;20394;-79
2022/08/11 11:50:09;;;;;;;;;;;40.50;50.10;;;;;;5010230;28;19909;-80
2022/08/11 11:52:35;;;;;;;;;;;40.30;50.10;;;;;;5021441;28;20063;-77
2022/08/11 11:55:01;;;;;;;;;;;40.00;49.70;;;;;;5020326;28;19929;-80
2022/08/11 12:02:57;;;;;;;;;;;39.90;49.40;;;;;;5023110;28;19971;-80
2022/08/11 12:05:23;;;;;;;;;;;39.50;48.70;;;;;;5017955;28;19940;-82
2022/08/11 12:10:33;;;;;;;;;;;39.30;49.90;;;;;;5014802;28;20376;-82
2022/08/11 12:16:02;;;;;;;;;;;39.80;50.20;;;;;;5016508;28;19913;-81
2022/08/11 12:18:34;;;;;;;;;;;39.70;49.20;;;;;;5010328;28;20023;-74
2022/08/11 12:21:00;;;;;;;;;;;39.80;49.10;;;;;;5014688;28;20502;-82
2022/08/11 12:28:58;;;;;;;;;;;40.10;48.10;;;;;;5021665;28;19912;-81
2022/08/11 12:31:24;;;;;;;;;;;40.10;49.30;;;;;;5005031;28;19906;-76
2022/08/11 12:33:50;;;;;;;;;;;40.10;49.30;;;;;;5018072;28;20233;-75
2022/08/11 12:36:16;;;;;;;;;;;40.10;49.30;;;;;;5009098;28;19918;-75
2022/08/11 12:38:46;;;;;;;;;;;40.00;49.30;;;;;;5007743;28;19913;-76
2022/08/11 12:46:44;;;;;;;;;;;39.70;48.90;;;;;;5015155;28;19920;-74
2022/08/11 12:52:13;;;;;;;;;;;39.90;49.80;;;;;;5025767;28;19936;-80
2022/08/11 12:54:39;;;;;;;;;;;39.70;48.90;;;;;;5013985;28;20329;-80
2022/08/11 13:05:40;;;;;;;;;;;40.30;48.60;;;;;;5014668;28;19931;-77
2022/08/11 13:08:06;;;;;;;;;;;40.60;49.20;;;;;;5021451;28;20367;-81
2022/08/11 13:13:17;;;;;;;;;;;39.80;49.10;;;;;;5010034;28;19920;-78
2022/08/11 13:15:44;;;;;;;;;;;40.50;48.80;;;;;;5011022;28;19955;-81
2022/08/11 13:18:10;;;;;;;;;;;40.90;48.50;;;;;;5016304;28;19905;-77
2022/08/11 13:20:36;;;;;;;;;;;40.60;48.20;;;;;;5016120;28;19996;-77
2022/08/11 13:23:02;;;;;;;;;;;40.30;48.80;;;;;;5011626;28;20009;-77
2022/08/11 13:25:30;;;;;;;;;;;40.10;48.70;;;;;;5017392;28;19916;-81
2022/08/11 13:27:56;;;;;;;;;;;39.90;48.90;;;;;;5021850;28;19924;-78
2022/08/11 13:33:08;;;;;;;;;;;39.50;49.10;;;;;;5007770;28;20012;-77
2022/08/11 13:35:34;;;;;;;;;;;39.80;49.30;;;;;;5009448;28;19905;-77
2022/08/11 13:38:00;;;;;;;;;;;39.50;48.60;;;;;;5009872;28;19967;-77
2022/08/11 13:40:26;;;;;;;;;;;39.40;48.60;;;;;;5008522;28;19909;-77
2022/08/11 13:42:52;;;;;;;;;;;39.80;48.50;;;;;;5011844;28;19913;-77
2022/08/11 13:45:22;;;;;;;;;;;40.10;49.20;;;;;;5010509;28;20316;-77
2022/08/11 13:47:48;;;;;;;;;;;39.90;47.80;;;;;;5019034;28;19909;-80
2022/08/11 13:50:15;;;;;;;;;;;39.70;48.10;;;;;;5016260;28;19909;-80
2022/08/11 13:52:41;;;;;;;;;;;39.70;48.40;;;;;;5027709;28;19921;-76
2022/08/11 13:55:07;;;;;;;;;;;39.70;48.90;;;;;;5019160;28;20060;-80
2022/08/11 13:57:33;;;;;;;;;;;39.70;48.70;;;;;;5014535;28;19912;-79
2022/08/11 14:00:08;;;;;;;;;;;39.80;48.70;;;;;;5014904;28;19948;-79
2022/08/11 14:02:35;;;;;;;;;;;39.80;48.40;;;;;;5024709;28;19955;-76
2022/08/11 14:05:02;;;;;;;;;;;39.70;48.70;;;;;;5015213;28;19909;-76
2022/08/11 14:07:34;;;;;;;;;;;39.50;48.90;;;;;;5012754;28;19920;-79
2022/08/11 14:10:00;;;;;;;;;;;39.60;49.00;;;;;;5023609;28;19924;-78
2022/08/11 14:15:24;;;;;;;;;;;39.80;49.70;;;;;;5010119;28;19955;-78
2022/08/11 14:18:02;;;;;;;;;;;39.80;48.70;;;;;;5024434;28;19909;-77
2022/08/11 14:22:05;;;;;;;;;;;40.50;49.20;;;;;;5018208;28;19905;-79
2022/08/11 14:23:15;;;;;;;;;;;39.90;49.80;;;;;;5014164;28;20285;-77
2022/08/11 14:26:22;;;;;;;;;;;39.30;50.60;;;;;;5024200;28;20055;-79
2022/08/11 14:28:26;;;;;;;;;;;39.40;51.30;;;;;;5013988;28;19962;-78
2022/08/11 14:30:55;;;;;;;;;;;39.70;50.40;;;;;;5013724;28;20385;-76
2022/08/11 14:33:20;;;;;;;;;;;40.00;50.20;;;;;;5015232;28;19905;-76
2022/08/11 14:35:46;;;;;;;;;;;39.80;50.50;;;;;;5015368;28;19913;-78
2022/08/11 14:38:12;;;;;;;;;;;40.00;50.40;;;;;;5015477;28;20350;-78
2022/08/11 14:48:50;;;;;;;;;;;40.70;50.50;;;;;;5015578;28;19916;-76
2022/08/11 14:51:16;;;;;;;;;;;40.80;50.20;;;;;;5015429;28;19909;-77
2022/08/11 14:53:42;;;;;;;;;;;41.60;50.20;;;;;;5015817;28;20418;-78
2022/08/11 14:58:52;;;;;;;;;;;41.00;50.30;;;;;;5014891;28;19964;-78
2022/08/11 15:04:01;;;;;;;;;;;40.40;49.60;;;;;;5015419;28;19921;-78
2022/08/11 15:06:28;;;;;;;;;;;39.90;49.90;;;;;;5015196;28;19913;-78
2022/08/11 15:08:54;;;;;;;;;;;40.50;50.00;;;;;;5014987;28;19909;-78
2022/08/11 15:14:05;;;;;;;;;;;40.80;49.40;;;;;;5015414;28;19912;-78
2022/08/11 15:19:19;;;;;;;;;;;40.50;49.30;;;;;;5013673;28;19932;-78
2022/08/11 15:24:32;;;;;;;;;;;40.30;49.90;;;;;;5015405;28;19916;-79
2022/08/11 15:38:00;;;;;;;;;;;40.20;50.00;;;;;;5016026;28;19924;-79
2022/08/11 15:46:09;;;;;;;;;;;40.20;49.80;;;;;;5016050;28;20385;-78
2022/08/11 15:48:58;;;;;;;;;;;39.80;49.70;;;;;;5016112;28;19909;-76
2022/08/11 15:51:34;;;;;;;;;;;39.50;50.00;;;;;;5001418;28;19905;-78
2022/08/11 15:54:04;;;;;;;;;;;39.70;49.90;;;;;;5015540;28;19905;-76
2022/08/11 15:56:30;;;;;;;;;;;39.40;49.50;;;;;;5014806;28;19998;-78
2022/08/11 16:04:28;;;;;;;;;;;39.80;49.80;;;;;;5014599;28;20312;-78
2022/08/11 16:07:10;;;;;;;;;;;40.00;49.70;;;;;;5013194;28;19914;-79
2022/08/11 16:09:45;;;;;;;;;;;39.90;49.20;;;;;;5015141;28;20386;-75
2022/08/11 16:12:12;;;;;;;;;;;39.90;49.40;;;;;;5012462;28;19968;-76
2022/08/11 16:17:25;;;;;;;;;;;39.50;49.30;;;;;;5015070;28;20320;-77
2022/08/11 16:19:52;;;;;;;;;;;39.20;49.30;;;;;;5014898;28;19955;-79
2022/08/11 16:22:26;;;;;;;;;;;39.30;48.90;;;;;;5014886;28;19906;-79
2022/08/11 16:24:53;;;;;;;;;;;38.80;49.20;;;;;;5015261;28;19909;-76
2022/08/11 16:27:19;;;;;;;;;;;39.10;49.20;;;;;;5014418;28;19916;-76
2022/08/11 16:29:46;;;;;;;;;;;39.50;49.40;;;;;;5014796;28;19906;-78
2022/08/11 16:32:17;;;;;;;;;;;39.40;49.00;;;;;;5014190;28;19958;-76
2022/08/11 16:40:23;;;;;;;;;;;39.80;49.10;;;;;;5004101;28;19920;-76
2022/08/11 16:48:20;;;;;;;;;;;39.60;49.00;;;;;;5014586;28;19916;-75
2022/08/11 16:50:46;;;;;;;;;;;39.40;48.90;;;;;;5014839;28;19949;-78
2022/08/11 16:53:14;;;;;;;;;;;39.30;49.30;;;;;;5014492;28;19917;-75
2022/08/11 16:55:39;;;;;;;;;;;39.10;49.40;;;;;;5014935;28;20319;-77
2022/08/11 17:00:49;;;;;;;;;;;39.00;50.20;;;;;;5014567;28;19956;-78
2022/08/11 17:14:37;;;;;;;;;;;38.20;50.50;;;;;;5014242;28;19912;-81
2022/08/11 17:17:05;;;;;;;;;;;38.10;51.20;;;;;;5014238;28;19912;-78
2022/08/11 17:19:32;;;;;;;;;;;38.00;51.70;;;;;;5013154;28;20363;-81
2022/08/11 17:24:45;;;;;;;;;;;37.60;52.00;;;;;;5014191;28;20402;-78
2022/08/11 17:27:15;;;;;;;;;;;37.50;52.10;;;;;;5012141;28;19960;-80
2022/08/11 17:29:49;;;;;;;;;;;37.40;52.30;;;;;;5013972;28;19948;-81
2022/08/11 17:37:49;;;;;;;;;;;36.90;52.20;;;;;;5013956;28;19959;-80
2022/08/11 17:40:17;;;;;;;;;;;36.80;52.00;;;;;;5013874;28;19909;-80
2022/08/11 17:48:24;;;;;;;;;;;36.50;52.00;;;;;;5013747;28;19920;-78
2022/08/11 17:50:54;;;;;;;;;;;36.50;51.90;;;;;;5013976;28;19905;-80
2022/08/11 18:01:34;;;;;;;;;;;35.90;53.30;;;;;;5013371;28;19912;-80
2022/08/11 18:04:04;;;;;;;;;;;35.70;53.80;;;;;;5013756;28;19912;-80
2022/08/11 18:06:31;;;;;;;;;;;35.50;54.00;;;;;;5013614;28;19913;-80
